createdAt,value
2018-08-31T00:00:43.405Z,96
2018-08-31T00:01:46.770Z,96
2018-08-31T00:02:51.156Z,95
2018-08-31T00:03:56.370Z,96
2018-08-31T00:05:00.448Z,94
2018-08-31T00:06:05.746Z,94
2018-08-31T00:07:10.965Z,94
2018-08-31T00:08:14.469Z,94
2018-08-31T00:09:17.129Z,94
2018-08-31T00:10:19.866Z,93
2018-08-31T00:11:23.863Z,93
2018-08-31T00:12:28.727Z,94
2018-08-31T00:13:32.169Z,95
2018-08-31T00:14:37.200Z,94
2018-08-31T00:15:41.997Z,94
2018-08-31T00:16:48.582Z,95
2018-08-31T00:17:52.847Z,94
2018-08-31T00:18:56.962Z,95
2018-08-31T00:20:01.536Z,94
2018-08-31T00:21:07.068Z,95
2018-08-31T00:22:12.124Z,94
2018-08-31T00:23:17.129Z,95
2018-08-31T00:24:21.344Z,95
2018-08-31T00:25:26.550Z,96
2018-08-31T00:26:30.390Z,95
2018-08-31T00:27:34.261Z,95
2018-08-31T00:28:38.052Z,95
2018-08-31T00:29:43.707Z,95
2018-08-31T00:30:48.651Z,95
2018-08-31T00:31:52.287Z,95
2018-08-31T00:32:55.639Z,95
2018-08-31T00:33:59.141Z,95
2018-08-31T00:35:02.957Z,95
2018-08-31T00:36:08.209Z,96
2018-08-31T00:37:13.716Z,94
2018-08-31T00:38:18.090Z,94
2018-08-31T00:39:21.845Z,95
2018-08-31T00:40:25.498Z,95
2018-08-31T00:41:28.947Z,95
2018-08-31T00:42:33.371Z,95
2018-08-31T00:43:37.135Z,95
2018-08-31T00:44:40.932Z,94
2018-08-31T00:45:43.748Z,94
2018-08-31T00:46:47.341Z,94
2018-08-31T00:47:51.391Z,94
2018-08-31T00:48:54.993Z,94
2018-08-31T00:49:57.998Z,94
2018-08-31T00:51:03.392Z,95
2018-08-31T00:52:09.463Z,96
2018-08-31T00:53:14.102Z,95
2018-08-31T00:54:17.429Z,94
2018-08-31T00:55:21.712Z,94
2018-08-31T00:56:26.696Z,96
2018-08-31T00:57:30.371Z,97
2018-08-31T00:58:34.270Z,97
2018-08-31T00:59:41.029Z,97
2018-08-31T01:00:46.708Z,95
2018-08-31T01:01:53.387Z,95
2018-08-31T01:02:57.304Z,95
2018-08-31T01:04:01.766Z,94
2018-08-31T01:05:07.425Z,94
2018-08-31T01:06:10.750Z,95
2018-08-31T01:07:15.342Z,95
2018-08-31T01:08:22.925Z,94
2018-08-31T01:09:27.774Z,95
2018-08-31T01:10:32.831Z,96
2018-08-31T01:11:37.488Z,97
2018-08-31T01:12:41.489Z,96
2018-08-31T01:13:46.186Z,96
2018-08-31T01:14:50.627Z,96
2018-08-31T01:15:55.633Z,97
2018-08-31T01:17:00.346Z,96
2018-08-31T01:18:06.072Z,95
2018-08-31T01:19:10.146Z,95
2018-08-31T01:20:15.196Z,95
2018-08-31T01:21:19.298Z,94
2018-08-31T01:22:23.010Z,94
2018-08-31T01:23:26.779Z,96
2018-08-31T01:24:31.790Z,96
2018-08-31T01:25:35.316Z,95
2018-08-31T01:26:40.185Z,95
2018-08-31T01:27:44.823Z,96
2018-08-31T01:28:49.270Z,95
2018-08-31T01:29:54.406Z,95
2018-08-31T01:30:59.685Z,96
2018-08-31T01:32:04.139Z,97
2018-08-31T01:33:08.867Z,96
2018-08-31T01:34:14.685Z,96
2018-08-31T01:35:19.221Z,95
2018-08-31T01:36:24.152Z,96
2018-08-31T01:37:28.532Z,96
2018-08-31T01:38:31.865Z,96
2018-08-31T01:39:35.167Z,95
2018-08-31T01:40:39.546Z,97
2018-08-31T01:41:42.056Z,97
2018-08-31T01:42:45.963Z,96
2018-08-31T01:43:50.561Z,97
2018-08-31T01:44:56.762Z,98
2018-08-31T01:46:02.723Z,97
2018-08-31T01:47:06.278Z,97
2018-08-31T01:48:10.719Z,97
2018-08-31T01:49:16.782Z,97
2018-08-31T01:50:21.939Z,97
2018-08-31T01:51:27.137Z,98
2018-08-31T01:52:31.064Z,97
2018-08-31T01:53:34.829Z,97
2018-08-31T01:54:38.809Z,98
2018-08-31T01:55:44.374Z,98
2018-08-31T01:56:49.748Z,98
2018-08-31T01:57:55.554Z,99
2018-08-31T01:59:01.315Z,98
2018-08-31T02:00:05.812Z,97
2018-08-31T02:01:08.787Z,98
2018-08-31T02:02:12.884Z,97
2018-08-31T02:03:18.059Z,97
2018-08-31T02:04:23.045Z,98
2018-08-31T02:05:27.958Z,99
2018-08-31T02:06:31.987Z,99
2018-08-31T02:07:35.727Z,99
2018-08-31T02:08:41.006Z,98
2018-08-31T02:09:45.490Z,98
2018-08-31T02:10:49.183Z,99
2018-08-31T02:11:53.723Z,98
2018-08-31T02:12:59.540Z,99
2018-08-31T02:14:03.241Z,99
2018-08-31T02:15:07.234Z,99
2018-08-31T02:16:10.119Z,99
2018-08-31T02:17:14.872Z,99
2018-08-31T02:18:19.006Z,99
2018-08-31T02:19:24.286Z,100
2018-08-31T02:20:29.564Z,99
2018-08-31T02:21:32.844Z,100
2018-08-31T02:22:36.452Z,100
2018-08-31T02:23:42.292Z,99
2018-08-31T02:24:49.467Z,99
2018-08-31T02:25:54.183Z,100
2018-08-31T02:26:58.781Z,99
2018-08-31T02:28:04.848Z,100
2018-08-31T02:29:10.024Z,100
2018-08-31T02:30:13.636Z,100
2018-08-31T02:31:19.179Z,99
2018-08-31T02:32:24.906Z,100
2018-08-31T02:33:30.828Z,100
2018-08-31T02:34:35.246Z,100
2018-08-31T02:35:40.689Z,100
2018-08-31T02:36:48.091Z,99
2018-08-31T02:37:53.277Z,100
2018-08-31T02:38:57.404Z,100
2018-08-31T02:40:01.233Z,100
2018-08-31T02:41:05.501Z,100
2018-08-31T02:42:10.557Z,100
2018-08-31T02:43:14.683Z,100
2018-08-31T02:44:20.021Z,100
2018-08-31T02:45:24.453Z,100
2018-08-31T02:46:28.958Z,100
2018-08-31T02:47:34.648Z,100
2018-08-31T02:48:40.447Z,100
2018-08-31T02:49:43.347Z,100
2018-08-31T02:50:48.803Z,100
2018-08-31T02:51:53.621Z,100
2018-08-31T02:52:59.674Z,100
2018-08-31T02:54:03.785Z,100
2018-08-31T02:55:08.621Z,100
2018-08-31T02:56:13.917Z,100
2018-08-31T02:57:18.302Z,99
2018-08-31T02:58:21.672Z,100
2018-08-31T02:59:25.419Z,100
2018-08-31T03:00:32.608Z,100
2018-08-31T03:01:39.125Z,99
2018-08-31T03:02:44.064Z,100
2018-08-31T03:03:49.599Z,100
2018-08-31T03:04:54.653Z,99
2018-08-31T03:06:00.328Z,99
2018-08-31T03:07:04.256Z,99
2018-08-31T03:08:07.865Z,100
2018-08-31T03:09:12.102Z,99
2018-08-31T03:10:15.370Z,99
2018-08-31T03:11:20.322Z,99
2018-08-31T03:12:24.445Z,100
2018-08-31T03:13:31.394Z,100
2018-08-31T03:14:37.101Z,100
2018-08-31T03:15:42.405Z,100
2018-08-31T03:16:47.537Z,100
2018-08-31T03:17:52.752Z,100
2018-08-31T03:18:58.646Z,100
2018-08-31T03:20:04.034Z,100
2018-08-31T03:21:10.049Z,100
2018-08-31T03:22:17.102Z,100
2018-08-31T03:23:23.452Z,100
2018-08-31T03:24:29.439Z,100
2018-08-31T03:25:35.034Z,100
2018-08-31T03:26:41.935Z,100
2018-08-31T03:27:47.676Z,100
2018-08-31T03:28:52.253Z,100
2018-08-31T03:29:57.934Z,100
2018-08-31T03:31:02.195Z,100
2018-08-31T03:32:07.120Z,100
2018-08-31T03:33:11.496Z,100
2018-08-31T03:34:17.816Z,100
2018-08-31T03:35:21.783Z,100
2018-08-31T03:36:26.513Z,100
2018-08-31T03:37:32.090Z,100
2018-08-31T03:38:37.009Z,100
2018-08-31T03:39:40.977Z,100
2018-08-31T03:40:47.390Z,100
2018-08-31T03:41:52.831Z,100
2018-08-31T03:42:56.718Z,100
2018-08-31T03:44:00.718Z,100
2018-08-31T03:45:06.552Z,100
2018-08-31T03:46:10.966Z,100
2018-08-31T03:47:16.772Z,100
2018-08-31T03:48:20.877Z,100
2018-08-31T03:49:25.042Z,100
2018-08-31T03:50:28.299Z,100
2018-08-31T03:51:31.703Z,100
2018-08-31T03:52:35.091Z,100
2018-08-31T03:53:38.366Z,100
2018-08-31T03:54:43.935Z,100
2018-08-31T03:55:48.385Z,100
2018-08-31T03:56:52.902Z,100
2018-08-31T03:57:56.999Z,100
2018-08-31T03:59:00.307Z,100
2018-08-31T04:00:04.957Z,100
2018-08-31T04:01:10.245Z,100
2018-08-31T04:02:14.559Z,100
2018-08-31T04:03:18.619Z,100
2018-08-31T04:04:23.086Z,100
2018-08-31T04:05:27.755Z,100
2018-08-31T04:07:01.649Z,100
2018-08-31T04:08:05.786Z,100
2018-08-31T04:09:09.787Z,100
2018-08-31T04:10:15.367Z,100
2018-08-31T04:11:20.589Z,100
2018-08-31T04:12:24.534Z,100
2018-08-31T04:13:29.780Z,100
2018-08-31T04:14:33.117Z,100
2018-08-31T04:15:38.129Z,100
2018-08-31T04:16:42.385Z,100
2018-08-31T04:17:45.467Z,100
2018-08-31T04:18:48.311Z,100
2018-08-31T04:19:51.333Z,100
2018-08-31T04:20:55.433Z,100
2018-08-31T04:22:00.180Z,100
2018-08-31T04:23:05.728Z,100
2018-08-31T04:24:11.296Z,100
2018-08-31T04:25:15.664Z,100
2018-08-31T04:26:19.378Z,100
2018-08-31T04:27:23.129Z,100
2018-08-31T04:28:26.837Z,100
2018-08-31T04:29:30.241Z,100
2018-08-31T04:30:33.711Z,100
2018-08-31T04:31:37.859Z,100
2018-08-31T04:32:42.725Z,100
2018-08-31T04:33:49.229Z,100
2018-08-31T04:34:52.543Z,100
2018-08-31T04:35:56.103Z,100
2018-08-31T04:36:58.718Z,100
2018-08-31T04:38:01.721Z,100
2018-08-31T04:39:06.441Z,100
2018-08-31T04:40:11.025Z,100
2018-08-31T04:41:16.141Z,100
2018-08-31T04:42:20.427Z,100
2018-08-31T04:43:22.987Z,100
2018-08-31T04:44:26.928Z,100
2018-08-31T04:45:30.984Z,100
2018-08-31T04:46:34.510Z,100
2018-08-31T04:47:36.880Z,100
2018-08-31T04:48:41.208Z,100
2018-08-31T04:49:46.392Z,100
2018-08-31T04:50:51.023Z,100
2018-08-31T04:51:55.335Z,100
2018-08-31T04:52:59.019Z,100
2018-08-31T04:54:04.149Z,100
2018-08-31T04:55:08.953Z,100
2018-08-31T04:56:14.934Z,100
2018-08-31T04:57:19.338Z,100
2018-08-31T04:58:25.065Z,100
2018-08-31T04:59:31.025Z,100
2018-08-31T05:00:34.547Z,100
2018-08-31T05:01:39.597Z,100
2018-08-31T05:02:44.525Z,100
2018-08-31T05:03:47.915Z,100
2018-08-31T05:04:52.198Z,100
2018-08-31T05:05:56.874Z,100
2018-08-31T05:07:01.293Z,100
2018-08-31T05:08:05.844Z,100
2018-08-31T05:09:11.116Z,100
2018-08-31T05:10:17.150Z,100
2018-08-31T05:11:22.599Z,100
2018-08-31T05:12:27.567Z,100
2018-08-31T05:13:31.900Z,100
2018-08-31T05:14:37.600Z,100
2018-08-31T05:15:42.904Z,100
2018-08-31T05:16:48.756Z,100
2018-08-31T05:17:52.989Z,100
2018-08-31T05:18:57.340Z,100
2018-08-31T05:20:00.648Z,100
2018-08-31T05:21:04.399Z,100
2018-08-31T05:22:09.476Z,100
2018-08-31T05:23:13.773Z,100
2018-08-31T05:24:19.062Z,100
2018-08-31T05:25:24.272Z,100
2018-08-31T05:26:28.155Z,100
2018-08-31T05:27:32.569Z,100
2018-08-31T05:28:37.798Z,100
2018-08-31T05:29:41.816Z,100
2018-08-31T05:30:46.135Z,100
2018-08-31T05:31:51.446Z,100
2018-08-31T05:32:57.350Z,100
2018-08-31T05:34:00.581Z,100
2018-08-31T05:35:03.992Z,100
2018-08-31T05:36:06.514Z,100
2018-08-31T05:37:09.410Z,100
2018-08-31T05:38:12.080Z,100
2018-08-31T05:39:16.227Z,100
2018-08-31T05:40:20.179Z,100
2018-08-31T05:41:24.608Z,100
2018-08-31T05:42:27.901Z,100
2018-08-31T05:43:31.721Z,100
2018-08-31T05:44:35.303Z,100
2018-08-31T05:45:38.653Z,100
2018-08-31T05:46:41.841Z,100
2018-08-31T05:47:44.787Z,100
2018-08-31T05:48:47.677Z,100
2018-08-31T05:49:50.979Z,100
2018-08-31T05:50:55.202Z,100
2018-08-31T05:51:58.233Z,100
2018-08-31T05:53:01.835Z,100
2018-08-31T05:54:04.998Z,100
2018-08-31T05:55:08.034Z,100
2018-08-31T05:56:11.372Z,100
2018-08-31T05:57:14.796Z,100
2018-08-31T05:58:17.215Z,100
2018-08-31T05:59:21.728Z,100
2018-08-31T06:00:25.261Z,100
2018-08-31T06:01:30.096Z,100
2018-08-31T06:02:33.065Z,100
2018-08-31T06:03:35.805Z,100
2018-08-31T06:04:39.002Z,100
2018-08-31T06:05:42.690Z,100
2018-08-31T06:06:46.574Z,100
2018-08-31T06:07:50.497Z,100
2018-08-31T06:08:53.150Z,100
2018-08-31T06:09:55.983Z,100
2018-08-31T06:10:59.076Z,100
2018-08-31T06:12:01.838Z,100
2018-08-31T06:13:04.514Z,100
2018-08-31T06:14:07.393Z,100
2018-08-31T06:15:10.194Z,100
2018-08-31T06:16:13.740Z,100
2018-08-31T06:17:17.986Z,100
2018-08-31T06:18:22.610Z,100
2018-08-31T06:19:26.591Z,100
2018-08-31T06:20:31.322Z,100
2018-08-31T06:21:35.199Z,100
2018-08-31T06:22:38.321Z,100
2018-08-31T06:23:41.529Z,100
2018-08-31T06:24:44.408Z,100
2018-08-31T06:25:47.440Z,100
2018-08-31T06:26:51.213Z,100
2018-08-31T06:27:55.203Z,100
2018-08-31T06:28:58.423Z,100
2018-08-31T06:30:02.180Z,100
2018-08-31T06:31:05.346Z,100
2018-08-31T06:32:08.578Z,100
2018-08-31T06:33:11.080Z,100
2018-08-31T06:34:14.162Z,99
2018-08-31T06:35:16.834Z,99
2018-08-31T06:36:19.349Z,99
2018-08-31T06:37:22.460Z,98
2018-08-31T06:38:26.839Z,99
2018-08-31T06:39:29.640Z,98
2018-08-31T06:40:31.863Z,99
2018-08-31T06:41:34.502Z,99
2018-08-31T06:42:37.968Z,99
2018-08-31T06:43:40.901Z,97
2018-08-31T06:44:43.811Z,98
2018-08-31T06:45:46.666Z,97
2018-08-31T06:46:49.712Z,97
2018-08-31T06:47:52.177Z,97
2018-08-31T06:48:54.864Z,97
2018-08-31T06:49:57.541Z,96
2018-08-31T06:51:00.301Z,96
2018-08-31T06:52:03.277Z,97
2018-08-31T06:53:05.695Z,96
2018-08-31T06:54:09.163Z,97
2018-08-31T06:55:11.525Z,96
2018-08-31T06:56:14.339Z,96
2018-08-31T06:57:16.821Z,96
2018-08-31T06:58:19.781Z,97
2018-08-31T06:59:22.312Z,96
2018-08-31T07:00:26.119Z,96
2018-08-31T07:01:29.759Z,96
2018-08-31T07:02:33.321Z,96
2018-08-31T07:03:35.971Z,96
2018-08-31T07:04:39.947Z,95
2018-08-31T07:05:42.686Z,95
2018-08-31T07:06:45.572Z,95
2018-08-31T07:07:48.039Z,95
2018-08-31T07:08:50.472Z,94
2018-08-31T07:09:53.200Z,95
2018-08-31T07:10:55.895Z,94
2018-08-31T07:11:57.980Z,96
2018-08-31T07:13:00.073Z,95
2018-08-31T07:14:02.182Z,95
2018-08-31T07:15:04.269Z,95
2018-08-31T07:16:06.373Z,93
2018-08-31T07:17:08.480Z,93
2018-08-31T07:18:10.566Z,93
2018-08-31T07:19:13.111Z,92
2018-08-31T07:20:15.298Z,93
2018-08-31T07:21:17.411Z,94
2018-08-31T07:22:19.503Z,93
2018-08-31T07:23:21.618Z,92
2018-08-31T07:24:23.996Z,91
2018-08-31T07:25:26.099Z,91
2018-08-31T07:26:28.717Z,91
2018-08-31T07:27:30.785Z,91
2018-08-31T07:28:32.881Z,91
2018-08-31T07:29:34.983Z,92
2018-08-31T07:30:37.087Z,91
2018-08-31T07:31:39.175Z,92
2018-08-31T07:32:41.293Z,91
2018-08-31T07:33:43.385Z,89
2018-08-31T07:34:45.485Z,89
2018-08-31T07:35:47.622Z,89
2018-08-31T07:36:49.684Z,89
2018-08-31T07:37:51.784Z,89
2018-08-31T07:38:53.896Z,89
2018-08-31T07:39:56.000Z,88
2018-08-31T07:40:58.092Z,87
2018-08-31T07:42:00.592Z,88
2018-08-31T07:43:02.690Z,88
2018-08-31T07:44:05.078Z,89
2018-08-31T07:45:07.190Z,89
2018-08-31T07:46:09.290Z,89
2018-08-31T07:47:11.767Z,87
2018-08-31T07:48:13.875Z,89
2018-08-31T07:49:16.372Z,88
2018-08-31T07:50:18.467Z,88
2018-08-31T07:51:20.572Z,85
2018-08-31T07:52:23.044Z,86
2018-08-31T07:53:25.459Z,87
2018-08-31T07:54:27.560Z,88
2018-08-31T07:55:29.673Z,87
2018-08-31T07:56:31.760Z,86
2018-08-31T07:57:34.260Z,84
2018-08-31T07:58:36.357Z,84
2018-08-31T07:59:38.480Z,83
2018-08-31T08:00:40.558Z,84
2018-08-31T08:01:42.664Z,83
2018-08-31T08:02:44.764Z,82
2018-08-31T08:03:46.871Z,83
2018-08-31T08:04:48.956Z,80
2018-08-31T08:05:51.391Z,81
2018-08-31T08:06:53.491Z,82
2018-08-31T08:07:55.989Z,81
2018-08-31T08:08:58.100Z,79
2018-08-31T08:10:00.190Z,78
2018-08-31T08:11:02.300Z,79
2018-08-31T08:12:04.409Z,78
2018-08-31T08:13:06.516Z,78
2018-08-31T08:14:08.610Z,77
2018-08-31T08:15:10.718Z,81
2018-08-31T08:16:13.157Z,81
2018-08-31T08:17:15.516Z,78
2018-08-31T08:18:17.627Z,76
2018-08-31T08:19:19.734Z,75
2018-08-31T08:20:21.823Z,76
2018-08-31T08:21:24.231Z,74
2018-08-31T08:22:26.650Z,75
2018-08-31T08:23:28.757Z,74
2018-08-31T08:24:30.864Z,74
2018-08-31T08:25:32.957Z,74
2018-08-31T08:26:35.064Z,72
2018-08-31T08:27:37.164Z,72
2018-08-31T08:28:39.277Z,72
2018-08-31T08:29:41.359Z,74
2018-08-31T08:30:43.471Z,74
2018-08-31T08:31:45.570Z,74
2018-08-31T08:32:48.055Z,74
2018-08-31T08:33:50.166Z,72
2018-08-31T08:34:52.256Z,69
2018-08-31T08:35:54.417Z,70
2018-08-31T08:36:56.856Z,70
2018-08-31T08:37:58.971Z,70
2018-08-31T08:39:01.066Z,73
2018-08-31T08:40:03.549Z,71
2018-08-31T08:41:05.938Z,73
2018-08-31T08:42:08.124Z,69
2018-08-31T08:43:10.145Z,72
2018-08-31T08:44:12.560Z,73
2018-08-31T08:45:14.672Z,71
2018-08-31T08:46:16.775Z,69
2018-08-31T08:47:18.865Z,71
2018-08-31T08:48:20.997Z,70
2018-08-31T08:49:23.460Z,73
2018-08-31T08:50:26.147Z,68
2018-08-31T08:51:28.254Z,70
2018-08-31T08:52:31.022Z,70
2018-08-31T08:53:33.365Z,70
2018-08-31T08:54:35.486Z,70
2018-08-31T08:55:38.081Z,70
2018-08-31T08:56:51.061Z,70
2018-08-31T08:57:55.844Z,67
2018-08-31T08:58:58.736Z,65
2018-08-31T09:00:00.839Z,67
2018-08-31T09:01:02.942Z,66
2018-08-31T09:02:05.052Z,65
2018-08-31T09:03:07.830Z,67
2018-08-31T09:04:09.941Z,64
2018-08-31T09:05:12.044Z,65
2018-08-31T09:06:14.538Z,65
2018-08-31T09:07:16.951Z,66
2018-08-31T09:08:19.049Z,67
2018-08-31T09:09:21.161Z,65
2018-08-31T09:10:23.263Z,68
2018-08-31T09:11:25.386Z,69
2018-08-31T09:12:27.593Z,68
2018-08-31T09:13:29.593Z,66
2018-08-31T09:14:31.704Z,68
2018-08-31T09:15:33.798Z,64
2018-08-31T09:16:35.904Z,65
2018-08-31T09:17:38.305Z,64
2018-08-31T09:18:40.422Z,66
2018-08-31T09:19:42.820Z,67
2018-08-31T09:20:45.252Z,67
2018-08-31T09:21:47.365Z,65
2018-08-31T09:22:49.465Z,64
2018-08-31T09:23:51.566Z,65
2018-08-31T09:24:54.464Z,64
2018-08-31T09:25:56.563Z,65
2018-08-31T09:26:58.958Z,68
2018-08-31T09:28:01.075Z,65
2018-08-31T09:29:03.177Z,65
2018-08-31T09:30:05.573Z,65
2018-08-31T09:31:07.686Z,65
2018-08-31T09:32:10.104Z,63
2018-08-31T09:33:12.220Z,64
2018-08-31T09:34:14.326Z,63
2018-08-31T09:35:16.740Z,63
2018-08-31T09:36:18.824Z,62
2018-08-31T09:37:20.938Z,64
2018-08-31T09:38:23.381Z,63
2018-08-31T09:39:26.358Z,63
2018-08-31T09:40:28.475Z,61
2018-08-31T09:42:32.677Z,61
2018-08-31T09:43:35.067Z,62
2018-08-31T09:44:37.473Z,61
2018-08-31T09:45:39.569Z,64
2018-08-31T09:46:41.682Z,66
2018-08-31T09:47:43.790Z,62
2018-08-31T09:48:45.884Z,66
2018-08-31T09:49:48.388Z,64
2018-08-31T09:50:50.393Z,63
2018-08-31T09:51:52.879Z,66
2018-08-31T09:52:55.372Z,64
2018-08-31T09:53:57.488Z,62
2018-08-31T09:54:59.588Z,62
2018-08-31T09:56:01.703Z,62
2018-08-31T09:57:03.811Z,65
2018-08-31T09:58:06.195Z,64
2018-08-31T09:59:08.907Z,64
2018-08-31T10:00:11.016Z,60
2018-08-31T10:01:13.104Z,63
2018-08-31T10:02:15.216Z,61
2018-08-31T10:03:17.331Z,59
2018-08-31T10:04:19.817Z,57
2018-08-31T10:05:22.226Z,62
2018-08-31T10:06:24.330Z,59
2018-08-31T10:07:26.429Z,62
2018-08-31T10:08:28.523Z,63
2018-08-31T10:09:30.649Z,61
2018-08-31T10:10:32.740Z,62
2018-08-31T10:11:34.849Z,65
2018-08-31T10:12:36.968Z,65
2018-08-31T10:13:39.072Z,65
2018-08-31T10:14:41.175Z,64
2018-08-31T10:15:43.282Z,63
2018-08-31T10:16:45.392Z,64
2018-08-31T10:17:47.487Z,63
2018-08-31T10:18:49.686Z,61
2018-08-31T10:19:51.711Z,65
2018-08-31T10:20:53.819Z,60
2018-08-31T10:21:56.230Z,60
2018-08-31T10:22:58.325Z,63
2018-08-31T10:24:00.439Z,56
2018-08-31T10:25:03.140Z,58
2018-08-31T10:26:05.933Z,57
2018-08-31T10:27:08.025Z,59
2018-08-31T10:28:10.139Z,56
2018-08-31T10:29:12.240Z,55
2018-08-31T10:30:14.349Z,58
2018-08-31T10:31:16.854Z,55
2018-08-31T10:32:18.958Z,57
2018-08-31T10:33:21.072Z,58
2018-08-31T10:34:23.165Z,55
2018-08-31T10:35:25.593Z,55
2018-08-31T10:36:27.706Z,54
2018-08-31T10:37:30.097Z,55
2018-08-31T10:38:32.216Z,55
2018-08-31T10:39:34.318Z,54
2018-08-31T10:40:36.426Z,56
2018-08-31T10:41:38.530Z,58
2018-08-31T10:42:40.655Z,56
2018-08-31T10:43:42.750Z,55
2018-08-31T10:44:45.174Z,54
2018-08-31T10:45:47.288Z,57
2018-08-31T10:46:49.688Z,56
2018-08-31T10:47:52.091Z,55
2018-08-31T10:48:54.589Z,56
2018-08-31T10:49:56.704Z,53
2018-08-31T10:50:58.799Z,53
2018-08-31T10:52:00.915Z,55
2018-08-31T10:53:03.017Z,52
2018-08-31T10:54:05.118Z,55
2018-08-31T10:55:07.237Z,55
2018-08-31T10:56:09.327Z,59
2018-08-31T10:57:11.441Z,54
2018-08-31T10:58:13.558Z,50
2018-08-31T10:59:15.671Z,49
2018-08-31T11:00:17.772Z,48
2018-08-31T11:01:19.885Z,48
2018-08-31T11:02:21.986Z,49
2018-08-31T11:03:24.112Z,49
2018-08-31T11:04:26.233Z,49
2018-08-31T11:05:28.341Z,49
2018-08-31T11:06:30.546Z,50
2018-08-31T11:07:32.969Z,51
2018-08-31T11:08:35.088Z,50
2018-08-31T11:09:37.197Z,50
2018-08-31T11:10:39.302Z,50
2018-08-31T11:11:41.483Z,51
2018-08-31T11:12:44.055Z,52
2018-08-31T11:13:46.061Z,53
2018-08-31T11:14:48.163Z,53
2018-08-31T11:15:50.290Z,50
2018-08-31T11:16:52.678Z,52
2018-08-31T11:17:54.791Z,51
2018-08-31T11:18:56.978Z,49
2018-08-31T11:19:59.416Z,51
2018-08-31T11:21:01.542Z,51
2018-08-31T11:22:03.644Z,55
2018-08-31T11:23:06.055Z,55
2018-08-31T11:24:08.443Z,54
2018-08-31T11:25:10.953Z,54
2018-08-31T11:26:13.345Z,55
2018-08-31T11:27:15.448Z,54
2018-08-31T11:28:17.572Z,54
2018-08-31T11:29:19.666Z,55
2018-08-31T11:30:22.172Z,55
2018-08-31T11:31:24.289Z,53
2018-08-31T11:32:26.403Z,54
2018-08-31T11:33:28.496Z,53
2018-08-31T11:34:30.609Z,52
2018-08-31T11:35:32.713Z,53
2018-08-31T11:36:34.824Z,53
2018-08-31T11:37:37.336Z,52
2018-08-31T11:38:39.462Z,51
2018-08-31T11:39:41.563Z,55
2018-08-31T11:40:43.972Z,54
2018-08-31T11:41:46.078Z,55
2018-08-31T11:42:48.184Z,54
2018-08-31T11:43:50.298Z,52
2018-08-31T11:44:52.396Z,53
2018-08-31T11:45:54.801Z,56
2018-08-31T11:46:56.915Z,50
2018-08-31T11:47:59.028Z,54
2018-08-31T11:49:01.136Z,49
2018-08-31T11:50:03.233Z,49
2018-08-31T11:51:05.651Z,54
2018-08-31T11:52:07.765Z,54
2018-08-31T11:53:10.148Z,51
2018-08-31T11:54:12.270Z,50
2018-08-31T11:55:14.439Z,51
2018-08-31T11:56:17.251Z,51
2018-08-31T11:57:19.398Z,52
2018-08-31T11:58:21.470Z,54
2018-08-31T11:59:23.966Z,55
2018-08-31T12:00:26.076Z,53
2018-08-31T12:01:28.768Z,53
2018-08-31T12:02:30.781Z,53
2018-08-31T12:03:32.890Z,53
2018-08-31T12:04:35.009Z,53
2018-08-31T12:05:37.129Z,50
2018-08-31T12:06:39.225Z,47
2018-08-31T12:07:41.849Z,49
2018-08-31T12:08:43.890Z,51
2018-08-31T12:09:46.011Z,49
2018-08-31T12:10:48.129Z,49
2018-08-31T12:11:50.234Z,49
2018-08-31T12:12:52.335Z,50
2018-08-31T12:13:54.453Z,51
2018-08-31T12:14:56.553Z,54
2018-08-31T12:15:59.346Z,53
2018-08-31T12:17:01.465Z,52
2018-08-31T12:18:03.560Z,56
2018-08-31T12:19:05.960Z,52
2018-08-31T12:20:08.074Z,52
2018-08-31T12:21:10.546Z,55
2018-08-31T12:22:12.641Z,58
2018-08-31T12:23:15.075Z,50
2018-08-31T12:24:17.179Z,51
2018-08-31T12:25:19.275Z,50
2018-08-31T12:26:21.788Z,49
2018-08-31T12:27:23.886Z,49
2018-08-31T12:28:25.995Z,48
2018-08-31T12:29:28.484Z,50
2018-08-31T12:30:30.605Z,51
2018-08-31T12:31:32.703Z,50
2018-08-31T12:32:34.817Z,50
2018-08-31T12:33:36.934Z,49
2018-08-31T12:34:39.027Z,49
2018-08-31T12:35:41.153Z,50
2018-08-31T12:36:43.551Z,51
2018-08-31T12:37:45.650Z,48
2018-08-31T12:38:47.759Z,49
2018-08-31T12:39:49.876Z,51
2018-08-31T12:40:51.977Z,51
2018-08-31T12:41:54.089Z,54
2018-08-31T12:42:56.979Z,52
2018-08-31T12:43:59.175Z,53
2018-08-31T12:45:01.485Z,53
2018-08-31T12:46:03.605Z,48
2018-08-31T12:47:05.698Z,49
2018-08-31T12:48:07.818Z,50
2018-08-31T12:49:09.933Z,51
2018-08-31T12:50:12.324Z,50
2018-08-31T12:51:14.445Z,48
2018-08-31T12:52:16.547Z,50
2018-08-31T12:53:19.241Z,49
2018-08-31T12:54:21.659Z,50
2018-08-31T12:55:23.773Z,53
2018-08-31T12:56:25.869Z,52
2018-08-31T12:57:28.373Z,52
2018-08-31T12:58:30.776Z,52
2018-08-31T12:59:33.161Z,53
2018-08-31T13:00:35.285Z,51
2018-08-31T13:01:37.389Z,52
2018-08-31T13:02:39.504Z,51
2018-08-31T13:03:41.653Z,52
2018-08-31T13:04:43.771Z,51
2018-08-31T13:05:46.165Z,53
2018-08-31T13:06:48.612Z,51
2018-08-31T13:07:51.056Z,49
2018-08-31T13:08:53.172Z,49
2018-08-31T13:09:55.277Z,49
2018-08-31T13:10:57.832Z,50
2018-08-31T13:11:59.923Z,51
2018-08-31T13:13:02.006Z,51
2018-08-31T13:14:04.108Z,53
2018-08-31T13:15:06.500Z,48
2018-08-31T13:16:09.013Z,46
2018-08-31T13:17:11.293Z,47
2018-08-31T13:18:13.440Z,47
2018-08-31T13:19:15.552Z,46
2018-08-31T13:20:17.939Z,46
2018-08-31T13:21:20.449Z,46
2018-08-31T13:22:22.560Z,50
2018-08-31T13:23:24.662Z,48
2018-08-31T13:24:26.783Z,45
2018-08-31T13:25:28.886Z,46
2018-08-31T13:26:30.991Z,48
2018-08-31T13:27:33.089Z,48
2018-08-31T13:28:35.211Z,48
2018-08-31T13:29:37.602Z,51
2018-08-31T13:30:40.011Z,46
2018-08-31T13:31:42.437Z,49
2018-08-31T13:32:44.536Z,46
2018-08-31T13:33:46.949Z,46
2018-08-31T13:34:49.057Z,46
2018-08-31T13:35:51.166Z,46
2018-08-31T13:36:53.578Z,45
2018-08-31T13:37:55.721Z,45
2018-08-31T13:38:58.163Z,47
2018-08-31T13:40:00.266Z,47
2018-08-31T13:41:02.786Z,47
2018-08-31T13:42:04.892Z,48
2018-08-31T13:43:06.997Z,46
2018-08-31T13:44:09.195Z,46
2018-08-31T13:45:11.204Z,52
2018-08-31T13:46:13.328Z,48
2018-08-31T13:47:15.435Z,48
2018-08-31T13:48:17.551Z,47
2018-08-31T13:49:19.662Z,48
2018-08-31T13:50:21.762Z,50
2018-08-31T13:51:23.874Z,50
2018-08-31T13:52:26.708Z,47
2018-08-31T13:53:28.792Z,48
2018-08-31T13:54:30.910Z,51
2018-08-31T13:55:33.022Z,46
2018-08-31T13:56:35.126Z,48
2018-08-31T13:57:37.247Z,46
2018-08-31T13:58:39.742Z,46
2018-08-31T13:59:41.857Z,46
2018-08-31T14:00:43.947Z,46
2018-08-31T14:01:46.357Z,48
2018-08-31T14:02:48.745Z,48
2018-08-31T14:03:50.887Z,48
2018-08-31T14:04:52.966Z,48
2018-08-31T14:05:55.069Z,48
2018-08-31T14:06:57.187Z,51
2018-08-31T14:07:59.295Z,46
2018-08-31T14:09:01.414Z,45
2018-08-31T14:10:03.508Z,47
2018-08-31T14:11:05.627Z,46
2018-08-31T14:12:07.730Z,48
2018-08-31T14:13:09.834Z,50
2018-08-31T14:14:11.958Z,51
2018-08-31T14:15:14.056Z,49
2018-08-31T14:16:16.172Z,50
2018-08-31T14:17:19.193Z,51
2018-08-31T14:18:21.355Z,51
2018-08-31T14:19:23.741Z,46
2018-08-31T14:20:25.850Z,44
2018-08-31T14:21:27.964Z,43
2018-08-31T14:22:30.078Z,45
2018-08-31T14:23:32.179Z,45
2018-08-31T14:24:34.580Z,47
2018-08-31T14:25:37.096Z,47
2018-08-31T14:26:39.482Z,45
2018-08-31T14:27:41.596Z,46
2018-08-31T14:28:43.708Z,44
2018-08-31T14:29:46.486Z,46
2018-08-31T14:30:48.915Z,46
2018-08-31T14:31:51.015Z,45
2018-08-31T14:32:53.119Z,47
2018-08-31T14:33:55.218Z,47
2018-08-31T14:34:57.341Z,44
2018-08-31T14:35:59.727Z,45
2018-08-31T14:37:02.227Z,45
2018-08-31T14:38:04.344Z,48
2018-08-31T14:39:06.753Z,48
2018-08-31T14:40:08.869Z,47
2018-08-31T14:41:10.970Z,46
2018-08-31T14:42:13.082Z,46
2018-08-31T14:43:15.567Z,48
2018-08-31T14:44:17.687Z,47
2018-08-31T14:45:20.177Z,47
2018-08-31T14:46:22.281Z,48
2018-08-31T14:47:24.396Z,46
2018-08-31T14:48:26.496Z,47
2018-08-31T14:49:28.650Z,48
2018-08-31T14:50:30.722Z,46
2018-08-31T14:51:32.831Z,50
2018-08-31T14:52:34.932Z,50
2018-08-31T14:53:37.048Z,47
2018-08-31T14:54:39.150Z,48